sensor_id;sensor_type;location;lat;lon;timestamp;P1;durP1;ratioP1;P2;durP2;ratioP2
18738;SDS011;9498;51.862;19.460;2022-08-02T00:01:53;30.13;;;19.37;;
18738;SDS011;9498;51.862;19.460;2022-08-02T00:04:22;30.30;;;20.60;;
18738;SDS011;9498;51.862;19.460;2022-08-02T00:06:49;27.47;;;20.50;;
18738;SDS011;9498;51.862;19.460;2022-08-02T00:09:16;28.77;;;20.33;;
18738;SDS011;9498;51.862;19.460;2022-08-02T00:11:44;28.70;;;20.30;;
18738;SDS011;9498;51.862;19.460;2022-08-02T00:14:11;30.13;;;19.23;;
18738;SDS011;9498;51.862;19.460;2022-08-02T00:16:38;31.37;;;20.33;;
18738;SDS011;9498;51.862;19.460;2022-08-02T00:19:06;31.00;;;21.57;;
18738;SDS011;9498;51.862;19.460;2022-08-02T00:21:34;34.17;;;23.13;;
18738;SDS011;9498;51.862;19.460;2022-08-02T00:24:02;32.90;;;22.30;;
18738;SDS011;9498;51.862;19.460;2022-08-02T00:26:29;34.70;;;22.70;;
18738;SDS011;9498;51.862;19.460;2022-08-02T00:28:57;33.87;;;22.20;;
18738;SDS011;9498;51.862;19.460;2022-08-02T00:31:24;34.37;;;22.70;;
18738;SDS011;9498;51.862;19.460;2022-08-02T00:33:51;29.37;;;21.03;;
18738;SDS011;9498;51.862;19.460;2022-08-02T00:36:19;32.73;;;21.70;;
18738;SDS011;9498;51.862;19.460;2022-08-02T00:38:47;29.17;;;20.77;;
18738;SDS011;9498;51.862;19.460;2022-08-02T00:41:16;30.87;;;21.37;;
18738;SDS011;9498;51.862;19.460;2022-08-02T00:43:44;28.60;;;21.27;;
18738;SDS011;9498;51.862;19.460;2022-08-02T00:46:11;33.03;;;21.67;;
18738;SDS011;9498;51.862;19.460;2022-08-02T00:48:39;31.07;;;21.90;;
18738;SDS011;9498;51.862;19.460;2022-08-02T00:51:06;29.43;;;20.10;;
18738;SDS011;9498;51.862;19.460;2022-08-02T00:53:34;32.00;;;20.20;;
18738;SDS011;9498;51.862;19.460;2022-08-02T00:56:02;32.20;;;22.00;;
18738;SDS011;9498;51.862;19.460;2022-08-02T00:58:30;30.93;;;20.53;;
18738;SDS011;9498;51.862;19.460;2022-08-02T01:00:57;31.63;;;19.33;;
18738;SDS011;9498;51.862;19.460;2022-08-02T01:03:26;25.73;;;18.53;;
18738;SDS011;9498;51.862;19.460;2022-08-02T01:05:53;32.50;;;21.67;;
18738;SDS011;9498;51.862;19.460;2022-08-02T01:08:21;29.17;;;20.37;;
18738;SDS011;9498;51.862;19.460;2022-08-02T01:10:48;26.87;;;19.03;;
18738;SDS011;9498;51.862;19.460;2022-08-02T01:13:17;28.50;;;18.10;;
18738;SDS011;9498;51.862;19.460;2022-08-02T01:15:46;29.80;;;20.13;;
18738;SDS011;9498;51.862;19.460;2022-08-02T01:18:18;32.17;;;20.07;;
18738;SDS011;9498;51.862;19.460;2022-08-02T01:21:11;29.63;;;20.47;;
18738;SDS011;9498;51.862;19.460;2022-08-02T01:23:47;27.50;;;19.37;;
18738;SDS011;9498;51.862;19.460;2022-08-02T01:26:23;28.20;;;19.03;;
18738;SDS011;9498;51.862;19.460;2022-08-02T01:28:55;34.57;;;20.27;;
18738;SDS011;9498;51.862;19.460;2022-08-02T01:31:25;28.00;;;18.90;;
18738;SDS011;9498;51.862;19.460;2022-08-02T01:33:54;27.20;;;19.07;;
18738;SDS011;9498;51.862;19.460;2022-08-02T01:36:24;27.33;;;18.93;;
18738;SDS011;9498;51.862;19.460;2022-08-02T01:38:53;26.10;;;18.40;;
18738;SDS011;9498;51.862;19.460;2022-08-02T01:41:22;32.33;;;20.43;;
18738;SDS011;9498;51.862;19.460;2022-08-02T01:43:51;28.23;;;19.50;;
18738;SDS011;9498;51.862;19.460;2022-08-02T01:46:21;32.90;;;20.37;;
18738;SDS011;9498;51.862;19.460;2022-08-02T01:48:49;30.60;;;20.20;;
18738;SDS011;9498;51.862;19.460;2022-08-02T01:51:19;33.23;;;19.77;;
18738;SDS011;9498;51.862;19.460;2022-08-02T01:54:08;27.17;;;18.63;;
18738;SDS011;9498;51.862;19.460;2022-08-02T01:56:37;29.80;;;19.10;;
18738;SDS011;9498;51.862;19.460;2022-08-02T01:59:05;27.80;;;18.87;;
18738;SDS011;9498;51.862;19.460;2022-08-02T02:01:36;27.33;;;18.67;;
18738;SDS011;9498;51.862;19.460;2022-08-02T02:04:04;26.07;;;18.63;;
18738;SDS011;9498;51.862;19.460;2022-08-02T02:06:34;36.00;;;19.67;;
18738;SDS011;9498;51.862;19.460;2022-08-02T02:09:02;30.00;;;20.23;;
18738;SDS011;9498;51.862;19.460;2022-08-02T02:11:31;30.47;;;20.77;;
18738;SDS011;9498;51.862;19.460;2022-08-02T02:13:59;31.73;;;20.03;;
18738;SDS011;9498;51.862;19.460;2022-08-02T02:16:27;30.57;;;20.13;;
18738;SDS011;9498;51.862;19.460;2022-08-02T02:18:57;31.43;;;21.30;;
18738;SDS011;9498;51.862;19.460;2022-08-02T02:21:26;29.97;;;19.97;;
18738;SDS011;9498;51.862;19.460;2022-08-02T02:23:53;29.93;;;19.13;;
18738;SDS011;9498;51.862;19.460;2022-08-02T02:26:20;29.70;;;19.10;;
18738;SDS011;9498;51.862;19.460;2022-08-02T02:28:49;28.30;;;18.77;;
18738;SDS011;9498;51.862;19.460;2022-08-02T02:31:18;25.77;;;18.37;;
18738;SDS011;9498;51.862;19.460;2022-08-02T02:33:47;27.43;;;17.57;;
18738;SDS011;9498;51.862;19.460;2022-08-02T02:36:18;26.03;;;17.30;;
18738;SDS011;9498;51.862;19.460;2022-08-02T02:38:47;26.07;;;16.77;;
18738;SDS011;9498;51.862;19.460;2022-08-02T02:41:14;22.17;;;15.70;;
18738;SDS011;9498;51.862;19.460;2022-08-02T02:43:43;27.67;;;17.27;;
18738;SDS011;9498;51.862;19.460;2022-08-02T02:46:10;25.27;;;17.30;;
18738;SDS011;9498;51.862;19.460;2022-08-02T02:48:39;26.97;;;17.73;;
18738;SDS011;9498;51.862;19.460;2022-08-02T02:51:07;25.90;;;17.00;;
18738;SDS011;9498;51.862;19.460;2022-08-02T02:53:38;29.37;;;18.13;;
18738;SDS011;9498;51.862;19.460;2022-08-02T02:56:07;26.40;;;18.13;;
18738;SDS011;9498;51.862;19.460;2022-08-02T02:58:34;27.63;;;17.67;;
18738;SDS011;9498;51.862;19.460;2022-08-02T03:01:03;28.77;;;18.47;;
18738;SDS011;9498;51.862;19.460;2022-08-02T03:03:49;26.70;;;18.07;;
18738;SDS011;9498;51.862;19.460;2022-08-02T03:06:17;25.33;;;17.83;;
18738;SDS011;9498;51.862;19.460;2022-08-02T03:08:46;31.13;;;20.20;;
18738;SDS011;9498;51.862;19.460;2022-08-02T03:11:13;27.30;;;18.00;;
18738;SDS011;9498;51.862;19.460;2022-08-02T03:13:41;29.57;;;19.07;;
18738;SDS011;9498;51.862;19.460;2022-08-02T03:16:09;30.73;;;19.10;;
18738;SDS011;9498;51.862;19.460;2022-08-02T03:18:37;29.07;;;19.83;;
18738;SDS011;9498;51.862;19.460;2022-08-02T03:21:05;32.67;;;19.80;;
18738;SDS011;9498;51.862;19.460;2022-08-02T03:23:33;27.97;;;18.90;;
18738;SDS011;9498;51.862;19.460;2022-08-02T03:26:02;27.63;;;18.30;;
18738;SDS011;9498;51.862;19.460;2022-08-02T03:28:30;34.27;;;19.57;;
18738;SDS011;9498;51.862;19.460;2022-08-02T03:30:57;30.27;;;18.83;;
18738;SDS011;9498;51.862;19.460;2022-08-02T03:33:25;26.20;;;18.73;;
18738;SDS011;9498;51.862;19.460;2022-08-02T03:35:54;30.70;;;20.20;;
18738;SDS011;9498;51.862;19.460;2022-08-02T03:38:22;34.23;;;20.13;;
18738;SDS011;9498;51.862;19.460;2022-08-02T03:40:51;30.47;;;19.60;;
18738;SDS011;9498;51.862;19.460;2022-08-02T03:43:21;32.20;;;19.87;;
18738;SDS011;9498;51.862;19.460;2022-08-02T03:45:49;36.23;;;19.53;;
18738;SDS011;9498;51.862;19.460;2022-08-02T03:48:17;35.93;;;22.20;;
18738;SDS011;9498;51.862;19.460;2022-08-02T03:50:45;36.40;;;22.77;;
18738;SDS011;9498;51.862;19.460;2022-08-02T03:53:12;36.40;;;22.30;;
18738;SDS011;9498;51.862;19.460;2022-08-02T03:55:40;40.07;;;24.77;;
18738;SDS011;9498;51.862;19.460;2022-08-02T03:58:07;42.80;;;26.33;;
18738;SDS011;9498;51.862;19.460;2022-08-02T04:00:36;46.23;;;27.07;;
18738;SDS011;9498;51.862;19.460;2022-08-02T04:03:04;52.23;;;28.50;;
18738;SDS011;9498;51.862;19.460;2022-08-02T04:05:31;49.70;;;28.17;;
18738;SDS011;9498;51.862;19.460;2022-08-02T04:07:58;42.67;;;25.13;;
18738;SDS011;9498;51.862;19.460;2022-08-02T04:10:26;38.53;;;23.87;;
18738;SDS011;9498;51.862;19.460;2022-08-02T04:12:53;45.87;;;26.87;;
18738;SDS011;9498;51.862;19.460;2022-08-02T04:15:21;46.43;;;26.87;;
18738;SDS011;9498;51.862;19.460;2022-08-02T04:17:51;52.37;;;28.47;;
18738;SDS011;9498;51.862;19.460;2022-08-02T04:20:23;51.07;;;29.80;;
18738;SDS011;9498;51.862;19.460;2022-08-02T04:22:54;48.80;;;28.07;;
18738;SDS011;9498;51.862;19.460;2022-08-02T04:25:23;46.63;;;27.27;;
18738;SDS011;9498;51.862;19.460;2022-08-02T04:27:51;44.90;;;27.70;;
18738;SDS011;9498;51.862;19.460;2022-08-02T04:30:18;46.43;;;27.17;;
18738;SDS011;9498;51.862;19.460;2022-08-02T04:32:46;46.90;;;26.07;;
18738;SDS011;9498;51.862;19.460;2022-08-02T04:35:15;43.10;;;25.77;;
18738;SDS011;9498;51.862;19.460;2022-08-02T04:37:42;47.20;;;27.07;;
18738;SDS011;9498;51.862;19.460;2022-08-02T04:40:10;41.90;;;24.90;;
18738;SDS011;9498;51.862;19.460;2022-08-02T04:42:40;42.63;;;25.70;;
18738;SDS011;9498;51.862;19.460;2022-08-02T04:45:07;38.43;;;24.77;;
18738;SDS011;9498;51.862;19.460;2022-08-02T04:47:35;46.57;;;27.27;;
18738;SDS011;9498;51.862;19.460;2022-08-02T04:50:03;42.77;;;26.97;;
18738;SDS011;9498;51.862;19.460;2022-08-02T04:52:32;47.67;;;27.67;;
18738;SDS011;9498;51.862;19.460;2022-08-02T04:54:59;45.43;;;28.03;;
18738;SDS011;9498;51.862;19.460;2022-08-02T04:57:27;49.97;;;29.60;;
18738;SDS011;9498;51.862;19.460;2022-08-02T05:00:12;50.83;;;30.00;;
18738;SDS011;9498;51.862;19.460;2022-08-02T05:02:39;47.83;;;29.23;;
18738;SDS011;9498;51.862;19.460;2022-08-02T05:05:08;45.30;;;28.60;;
18738;SDS011;9498;51.862;19.460;2022-08-02T05:07:37;47.97;;;27.20;;
18738;SDS011;9498;51.862;19.460;2022-08-02T05:10:05;47.53;;;28.40;;
18738;SDS011;9498;51.862;19.460;2022-08-02T05:12:32;59.67;;;32.03;;
18738;SDS011;9498;51.862;19.460;2022-08-02T05:15:00;47.73;;;30.27;;
18738;SDS011;9498;51.862;19.460;2022-08-02T05:17:27;48.23;;;28.83;;
18738;SDS011;9498;51.862;19.460;2022-08-02T05:19:54;46.67;;;28.80;;
18738;SDS011;9498;51.862;19.460;2022-08-02T05:22:21;48.23;;;28.73;;
18738;SDS011;9498;51.862;19.460;2022-08-02T05:24:50;49.20;;;29.97;;
18738;SDS011;9498;51.862;19.460;2022-08-02T05:27:18;48.77;;;29.73;;
18738;SDS011;9498;51.862;19.460;2022-08-02T05:29:45;47.57;;;29.50;;
18738;SDS011;9498;51.862;19.460;2022-08-02T05:32:13;47.00;;;29.10;;
18738;SDS011;9498;51.862;19.460;2022-08-02T05:34:41;48.50;;;28.90;;
18738;SDS011;9498;51.862;19.460;2022-08-02T05:37:08;51.30;;;31.20;;
18738;SDS011;9498;51.862;19.460;2022-08-02T05:39:35;54.67;;;32.50;;
18738;SDS011;9498;51.862;19.460;2022-08-02T05:42:04;54.87;;;32.13;;
18738;SDS011;9498;51.862;19.460;2022-08-02T05:44:32;51.97;;;31.10;;
18738;SDS011;9498;51.862;19.460;2022-08-02T05:46:59;52.83;;;32.30;;
18738;SDS011;9498;51.862;19.460;2022-08-02T05:49:26;56.93;;;31.80;;
18738;SDS011;9498;51.862;19.460;2022-08-02T05:51:55;52.43;;;33.23;;
18738;SDS011;9498;51.862;19.460;2022-08-02T05:54:26;51.53;;;32.63;;
18738;SDS011;9498;51.862;19.460;2022-08-02T05:57:00;47.53;;;31.57;;
18738;SDS011;9498;51.862;19.460;2022-08-02T05:59:32;47.87;;;31.53;;
18738;SDS011;9498;51.862;19.460;2022-08-02T06:02:07;46.20;;;31.53;;
18738;SDS011;9498;51.862;19.460;2022-08-02T06:04:46;50.90;;;33.27;;
18738;SDS011;9498;51.862;19.460;2022-08-02T06:07:18;50.03;;;31.30;;
18738;SDS011;9498;51.862;19.460;2022-08-02T06:09:48;48.80;;;31.03;;
18738;SDS011;9498;51.862;19.460;2022-08-02T06:12:16;52.13;;;31.13;;
18738;SDS011;9498;51.862;19.460;2022-08-02T06:14:46;48.83;;;30.07;;
18738;SDS011;9498;51.862;19.460;2022-08-02T06:17:14;45.33;;;30.33;;
18738;SDS011;9498;51.862;19.460;2022-08-02T06:19:42;47.50;;;31.43;;
18738;SDS011;9498;51.862;19.460;2022-08-02T06:22:10;45.90;;;29.73;;
18738;SDS011;9498;51.862;19.460;2022-08-02T06:24:41;43.43;;;29.07;;
18738;SDS011;9498;51.862;19.460;2022-08-02T06:27:09;40.73;;;28.93;;
18738;SDS011;9498;51.862;19.460;2022-08-02T06:29:37;45.87;;;29.27;;
18738;SDS011;9498;51.862;19.460;2022-08-02T06:32:07;42.73;;;28.47;;
18738;SDS011;9498;51.862;19.460;2022-08-02T06:34:38;39.87;;;26.57;;
18738;SDS011;9498;51.862;19.460;2022-08-02T06:37:07;38.30;;;24.67;;
18738;SDS011;9498;51.862;19.460;2022-08-02T06:39:39;33.13;;;22.67;;
18738;SDS011;9498;51.862;19.460;2022-08-02T06:42:11;31.33;;;22.50;;
18738;SDS011;9498;51.862;19.460;2022-08-02T06:44:38;31.60;;;22.27;;
18738;SDS011;9498;51.862;19.460;2022-08-02T06:47:07;30.17;;;21.07;;
18738;SDS011;9498;51.862;19.460;2022-08-02T06:49:35;28.07;;;19.43;;
18738;SDS011;9498;51.862;19.460;2022-08-02T06:52:02;27.27;;;18.23;;
18738;SDS011;9498;51.862;19.460;2022-08-02T06:54:30;25.07;;;18.63;;
18738;SDS011;9498;51.862;19.460;2022-08-02T06:56:58;23.73;;;17.67;;
18738;SDS011;9498;51.862;19.460;2022-08-02T06:59:25;24.27;;;17.37;;
18738;SDS011;9498;51.862;19.460;2022-08-02T07:01:53;25.90;;;17.57;;
18738;SDS011;9498;51.862;19.460;2022-08-02T07:04:25;26.20;;;18.20;;
18738;SDS011;9498;51.862;19.460;2022-08-02T07:06:52;26.70;;;17.47;;
18738;SDS011;9498;51.862;19.460;2022-08-02T07:09:21;29.90;;;18.23;;
18738;SDS011;9498;51.862;19.460;2022-08-02T07:11:48;28.70;;;18.73;;
18738;SDS011;9498;51.862;19.460;2022-08-02T07:14:15;24.33;;;17.57;;
18738;SDS011;9498;51.862;19.460;2022-08-02T07:16:43;26.13;;;18.57;;
18738;SDS011;9498;51.862;19.460;2022-08-02T07:19:10;24.77;;;17.27;;
18738;SDS011;9498;51.862;19.460;2022-08-02T07:21:38;26.10;;;17.30;;
18738;SDS011;9498;51.862;19.460;2022-08-02T07:24:06;25.13;;;16.37;;
18738;SDS011;9498;51.862;19.460;2022-08-02T07:26:33;28.13;;;16.17;;
18738;SDS011;9498;51.862;19.460;2022-08-02T07:29:01;23.73;;;16.20;;
18738;SDS011;9498;51.862;19.460;2022-08-02T07:31:28;24.40;;;15.87;;
18738;SDS011;9498;51.862;19.460;2022-08-02T07:33:55;24.67;;;16.03;;
18738;SDS011;9498;51.862;19.460;2022-08-02T07:36:23;26.37;;;16.57;;
18738;SDS011;9498;51.862;19.460;2022-08-02T07:38:51;21.47;;;15.17;;
18738;SDS011;9498;51.862;19.460;2022-08-02T07:41:19;22.47;;;15.10;;
18738;SDS011;9498;51.862;19.460;2022-08-02T07:43:46;19.27;;;13.97;;
18738;SDS011;9498;51.862;19.460;2022-08-02T07:46:14;30.47;;;15.70;;
18738;SDS011;9498;51.862;19.460;2022-08-02T07:48:41;22.33;;;15.30;;
18738;SDS011;9498;51.862;19.460;2022-08-02T07:51:08;23.37;;;16.17;;
18738;SDS011;9498;51.862;19.460;2022-08-02T07:53:35;21.37;;;15.73;;
18738;SDS011;9498;51.862;19.460;2022-08-02T07:56:04;21.20;;;15.00;;
18738;SDS011;9498;51.862;19.460;2022-08-02T07:58:32;29.00;;;15.10;;
18738;SDS011;9498;51.862;19.460;2022-08-02T08:00:59;22.87;;;14.93;;
18738;SDS011;9498;51.862;19.460;2022-08-02T08:03:26;23.10;;;15.33;;
18738;SDS011;9498;51.862;19.460;2022-08-02T08:05:54;28.93;;;15.83;;
18738;SDS011;9498;51.862;19.460;2022-08-02T08:08:21;28.17;;;15.47;;
18738;SDS011;9498;51.862;19.460;2022-08-02T08:10:49;20.80;;;15.10;;
18738;SDS011;9498;51.862;19.460;2022-08-02T08:13:17;22.73;;;15.90;;
18738;SDS011;9498;51.862;19.460;2022-08-02T08:15:45;22.03;;;15.33;;
18738;SDS011;9498;51.862;19.460;2022-08-02T08:18:12;25.90;;;14.60;;
18738;SDS011;9498;51.862;19.460;2022-08-02T08:20:39;29.33;;;15.27;;
18738;SDS011;9498;51.862;19.460;2022-08-02T08:23:07;19.80;;;13.73;;
18738;SDS011;9498;51.862;19.460;2022-08-02T08:25:34;22.90;;;13.03;;
18738;SDS011;9498;51.862;19.460;2022-08-02T08:28:01;21.73;;;13.57;;
18738;SDS011;9498;51.862;19.460;2022-08-02T08:30:30;18.40;;;12.13;;
18738;SDS011;9498;51.862;19.460;2022-08-02T08:32:58;17.57;;;12.00;;
18738;SDS011;9498;51.862;19.460;2022-08-02T08:35:25;17.27;;;11.20;;
18738;SDS011;9498;51.862;19.460;2022-08-02T08:37:52;15.83;;;10.63;;
18738;SDS011;9498;51.862;19.460;2022-08-02T08:40:20;15.53;;;9.67;;
18738;SDS011;9498;51.862;19.460;2022-08-02T08:42:47;17.53;;;10.67;;
18738;SDS011;9498;51.862;19.460;2022-08-02T08:45:15;14.50;;;9.50;;
18738;SDS011;9498;51.862;19.460;2022-08-02T08:47:45;13.87;;;9.30;;
18738;SDS011;9498;51.862;19.460;2022-08-02T08:50:16;13.93;;;9.00;;
18738;SDS011;9498;51.862;19.460;2022-08-02T08:52:46;16.97;;;9.30;;
18738;SDS011;9498;51.862;19.460;2022-08-02T08:55:14;12.80;;;9.07;;
18738;SDS011;9498;51.862;19.460;2022-08-02T08:57:42;12.53;;;8.33;;
18738;SDS011;9498;51.862;19.460;2022-08-02T09:00:10;12.23;;;8.10;;
18738;SDS011;9498;51.862;19.460;2022-08-02T09:02:40;15.83;;;8.90;;
18738;SDS011;9498;51.862;19.460;2022-08-02T09:05:10;14.40;;;8.33;;
18738;SDS011;9498;51.862;19.460;2022-08-02T09:07:38;15.47;;;8.77;;
18738;SDS011;9498;51.862;19.460;2022-08-02T09:13:08;13.87;;;7.47;;
18738;SDS011;9498;51.862;19.460;2022-08-02T09:15:36;13.38;;;7.40;;
18738;SDS011;9498;51.862;19.460;2022-08-02T09:18:04;10.87;;;6.77;;
18738;SDS011;9498;51.862;19.460;2022-08-02T09:20:33;14.80;;;6.33;;
18738;SDS011;9498;51.862;19.460;2022-08-02T09:23:04;11.77;;;6.90;;
18738;SDS011;9498;51.862;19.460;2022-08-02T09:25:32;9.00;;;6.75;;
18738;SDS011;9498;51.862;19.460;2022-08-02T09:27:59;13.00;;;6.37;;
18738;SDS011;9498;51.862;19.460;2022-08-02T09:30:26;12.17;;;6.47;;
18738;SDS011;9498;51.862;19.460;2022-08-02T09:32:54;12.30;;;6.40;;
18738;SDS011;9498;51.862;19.460;2022-08-02T09:35:32;11.75;;;6.28;;
18738;SDS011;9498;51.862;19.460;2022-08-02T09:38:10;9.50;;;5.83;;
18738;SDS011;9498;51.862;19.460;2022-08-02T09:40:38;9.53;;;5.77;;
18738;SDS011;9498;51.862;19.460;2022-08-02T09:43:05;9.33;;;5.50;;
18738;SDS011;9498;51.862;19.460;2022-08-02T09:45:33;10.95;;;5.65;;
18738;SDS011;9498;51.862;19.460;2022-08-02T09:48:01;13.60;;;5.40;;
18738;SDS011;9498;51.862;19.460;2022-08-02T09:50:29;7.83;;;5.40;;
18738;SDS011;9498;51.862;19.460;2022-08-02T09:52:58;9.07;;;5.50;;
18738;SDS011;9498;51.862;19.460;2022-08-02T09:55:27;12.63;;;5.10;;
18738;SDS011;9498;51.862;19.460;2022-08-02T09:57:54;6.23;;;5.13;;
18738;SDS011;9498;51.862;19.460;2022-08-02T10:00:21;9.97;;;5.07;;
18738;SDS011;9498;51.862;19.460;2022-08-02T10:03:04;9.80;;;5.00;;
18738;SDS011;9498;51.862;19.460;2022-08-02T10:05:44;8.32;;;4.85;;
18738;SDS011;9498;51.862;19.460;2022-08-02T10:08:13;8.50;;;4.90;;
18738;SDS011;9498;51.862;19.460;2022-08-02T10:10:41;5.03;;;4.20;;
18738;SDS011;9498;51.862;19.460;2022-08-02T10:13:08;5.93;;;4.20;;
18738;SDS011;9498;51.862;19.460;2022-08-02T10:15:35;8.63;;;4.70;;
18738;SDS011;9498;51.862;19.460;2022-08-02T10:18:03;8.10;;;4.57;;
18738;SDS011;9498;51.862;19.460;2022-08-02T10:20:31;9.10;;;4.77;;
18738;SDS011;9498;51.862;19.460;2022-08-02T10:22:59;11.87;;;4.67;;
18738;SDS011;9498;51.862;19.460;2022-08-02T10:25:28;8.20;;;4.43;;
18738;SDS011;9498;51.862;19.460;2022-08-02T10:27:56;6.70;;;4.23;;
18738;SDS011;9498;51.862;19.460;2022-08-02T10:30:24;8.03;;;5.00;;
18738;SDS011;9498;51.862;19.460;2022-08-02T10:32:53;7.03;;;4.63;;
18738;SDS011;9498;51.862;19.460;2022-08-02T10:35:21;9.90;;;4.40;;
18738;SDS011;9498;51.862;19.460;2022-08-02T10:37:51;10.87;;;5.13;;
18738;SDS011;9498;51.862;19.460;2022-08-02T10:40:19;8.40;;;4.30;;
18738;SDS011;9498;51.862;19.460;2022-08-02T10:42:52;9.15;;;4.70;;
18738;SDS011;9498;51.862;19.460;2022-08-02T10:45:20;6.20;;;4.60;;
18738;SDS011;9498;51.862;19.460;2022-08-02T10:47:57;12.93;;;4.50;;
18738;SDS011;9498;51.862;19.460;2022-08-02T10:53:18;7.67;;;4.90;;
18738;SDS011;9498;51.862;19.460;2022-08-02T10:55:46;8.07;;;4.68;;
18738;SDS011;9498;51.862;19.460;2022-08-02T10:58:18;9.03;;;4.97;;
18738;SDS011;9498;51.862;19.460;2022-08-02T11:00:46;7.73;;;4.30;;
18738;SDS011;9498;51.862;19.460;2022-08-02T11:03:33;7.85;;;4.40;;
18738;SDS011;9498;51.862;19.460;2022-08-02T11:06:01;8.77;;;4.83;;
18738;SDS011;9498;51.862;19.460;2022-08-02T11:08:28;8.40;;;4.77;;
18738;SDS011;9498;51.862;19.460;2022-08-02T11:10:59;10.20;;;4.67;;
18738;SDS011;9498;51.862;19.460;2022-08-02T11:13:28;9.63;;;4.57;;
18738;SDS011;9498;51.862;19.460;2022-08-02T11:15:56;6.67;;;4.33;;
18738;SDS011;9498;51.862;19.460;2022-08-02T11:21:31;6.87;;;4.20;;
18738;SDS011;9498;51.862;19.460;2022-08-02T11:26:44;8.20;;;4.80;;
18738;SDS011;9498;51.862;19.460;2022-08-02T11:29:13;11.93;;;4.50;;
18738;SDS011;9498;51.862;19.460;2022-08-02T11:31:41;7.57;;;4.47;;
18738;SDS011;9498;51.862;19.460;2022-08-02T11:34:09;7.93;;;4.20;;
18738;SDS011;9498;51.862;19.460;2022-08-02T11:36:43;5.63;;;4.20;;
18738;SDS011;9498;51.862;19.460;2022-08-02T11:39:11;5.57;;;4.17;;
18738;SDS011;9498;51.862;19.460;2022-08-02T11:41:39;7.97;;;4.30;;
18738;SDS011;9498;51.862;19.460;2022-08-02T11:44:06;7.70;;;4.37;;
18738;SDS011;9498;51.862;19.460;2022-08-02T11:46:35;7.50;;;4.40;;
18738;SDS011;9498;51.862;19.460;2022-08-02T11:49:15;6.53;;;4.40;;
18738;SDS011;9498;51.862;19.460;2022-08-02T11:51:50;11.17;;;4.20;;
18738;SDS011;9498;51.862;19.460;2022-08-02T11:54:27;6.70;;;4.53;;
18738;SDS011;9498;51.862;19.460;2022-08-02T11:57:07;8.07;;;4.70;;
18738;SDS011;9498;51.862;19.460;2022-08-02T11:59:35;8.73;;;4.07;;
18738;SDS011;9498;51.862;19.460;2022-08-02T12:02:04;7.87;;;4.90;;
18738;SDS011;9498;51.862;19.460;2022-08-02T12:04:33;7.55;;;4.20;;
18738;SDS011;9498;51.862;19.460;2022-08-02T12:07:00;6.23;;;4.13;;
18738;SDS011;9498;51.862;19.460;2022-08-02T12:09:29;8.77;;;3.87;;
18738;SDS011;9498;51.862;19.460;2022-08-02T12:11:56;6.17;;;4.13;;
18738;SDS011;9498;51.862;19.460;2022-08-02T12:14:25;7.07;;;4.00;;
18738;SDS011;9498;51.862;19.460;2022-08-02T12:16:53;8.50;;;3.60;;
18738;SDS011;9498;51.862;19.460;2022-08-02T12:19:40;7.43;;;4.30;;
18738;SDS011;9498;51.862;19.460;2022-08-02T12:22:08;5.57;;;4.07;;
18738;SDS011;9498;51.862;19.460;2022-08-02T12:24:36;6.23;;;4.10;;
18738;SDS011;9498;51.862;19.460;2022-08-02T12:27:04;6.47;;;4.50;;
18738;SDS011;9498;51.862;19.460;2022-08-02T12:29:31;5.40;;;4.27;;
18738;SDS011;9498;51.862;19.460;2022-08-02T12:31:59;5.70;;;3.90;;
18738;SDS011;9498;51.862;19.460;2022-08-02T12:34:27;5.80;;;3.60;;
18738;SDS011;9498;51.862;19.460;2022-08-02T12:37:00;4.80;;;4.00;;
18738;SDS011;9498;51.862;19.460;2022-08-02T12:39:35;6.53;;;3.80;;
18738;SDS011;9498;51.862;19.460;2022-08-02T12:42:03;7.67;;;4.13;;
18738;SDS011;9498;51.862;19.460;2022-08-02T12:44:31;6.60;;;4.07;;
18738;SDS011;9498;51.862;19.460;2022-08-02T12:47:00;8.40;;;4.03;;
18738;SDS011;9498;51.862;19.460;2022-08-02T12:49:28;8.93;;;3.97;;
18738;SDS011;9498;51.862;19.460;2022-08-02T12:51:55;6.83;;;4.37;;
18738;SDS011;9498;51.862;19.460;2022-08-02T12:54:25;6.83;;;3.90;;
18738;SDS011;9498;51.862;19.460;2022-08-02T12:56:52;8.60;;;4.03;;
18738;SDS011;9498;51.862;19.460;2022-08-02T12:59:32;6.73;;;3.77;;
18738;SDS011;9498;51.862;19.460;2022-08-02T13:02:00;10.07;;;4.23;;
18738;SDS011;9498;51.862;19.460;2022-08-02T13:04:28;6.80;;;3.83;;
18738;SDS011;9498;51.862;19.460;2022-08-02T13:06:55;5.97;;;3.67;;
18738;SDS011;9498;51.862;19.460;2022-08-02T13:09:24;6.43;;;4.03;;
18738;SDS011;9498;51.862;19.460;2022-08-02T13:11:51;6.43;;;4.17;;
18738;SDS011;9498;51.862;19.460;2022-08-02T13:14:19;5.07;;;3.97;;
18738;SDS011;9498;51.862;19.460;2022-08-02T13:16:46;5.87;;;3.77;;
18738;SDS011;9498;51.862;19.460;2022-08-02T13:19:13;7.30;;;3.87;;
18738;SDS011;9498;51.862;19.460;2022-08-02T13:21:42;5.70;;;3.73;;
18738;SDS011;9498;51.862;19.460;2022-08-02T13:24:10;8.20;;;4.13;;
18738;SDS011;9498;51.862;19.460;2022-08-02T13:26:41;7.60;;;3.97;;
18738;SDS011;9498;51.862;19.460;2022-08-02T13:29:09;5.30;;;3.97;;
18738;SDS011;9498;51.862;19.460;2022-08-02T13:31:36;8.97;;;4.33;;
18738;SDS011;9498;51.862;19.460;2022-08-02T13:34:04;7.07;;;4.40;;
18738;SDS011;9498;51.862;19.460;2022-08-02T13:36:31;5.50;;;4.03;;
18738;SDS011;9498;51.862;19.460;2022-08-02T13:38:59;8.53;;;4.57;;
18738;SDS011;9498;51.862;19.460;2022-08-02T13:41:27;7.67;;;4.30;;
18738;SDS011;9498;51.862;19.460;2022-08-02T13:43:56;10.13;;;4.07;;
18738;SDS011;9498;51.862;19.460;2022-08-02T13:46:23;4.67;;;4.20;;
18738;SDS011;9498;51.862;19.460;2022-08-02T13:48:51;7.30;;;5.13;;
18738;SDS011;9498;51.862;19.460;2022-08-02T13:51:18;5.57;;;4.20;;
18738;SDS011;9498;51.862;19.460;2022-08-02T13:53:45;5.13;;;4.63;;
18738;SDS011;9498;51.862;19.460;2022-08-02T13:56:12;6.33;;;4.57;;
18738;SDS011;9498;51.862;19.460;2022-08-02T13:58:40;7.47;;;4.47;;
18738;SDS011;9498;51.862;19.460;2022-08-02T14:01:09;6.00;;;4.37;;
18738;SDS011;9498;51.862;19.460;2022-08-02T14:03:36;7.13;;;4.63;;
18738;SDS011;9498;51.862;19.460;2022-08-02T14:06:03;5.00;;;4.13;;
18738;SDS011;9498;51.862;19.460;2022-08-02T14:08:33;7.10;;;4.70;;
18738;SDS011;9498;51.862;19.460;2022-08-02T14:11:00;11.17;;;4.80;;
18738;SDS011;9498;51.862;19.460;2022-08-02T14:13:28;8.37;;;4.77;;
18738;SDS011;9498;51.862;19.460;2022-08-02T14:15:55;8.77;;;4.80;;
18738;SDS011;9498;51.862;19.460;2022-08-02T14:18:25;8.17;;;4.30;;
18738;SDS011;9498;51.862;19.460;2022-08-02T14:20:52;5.40;;;4.27;;
18738;SDS011;9498;51.862;19.460;2022-08-02T14:23:20;6.37;;;4.63;;
18738;SDS011;9498;51.862;19.460;2022-08-02T14:25:47;7.80;;;4.50;;
18738;SDS011;9498;51.862;19.460;2022-08-02T14:28:15;6.27;;;4.33;;
18738;SDS011;9498;51.862;19.460;2022-08-02T14:30:43;6.03;;;4.50;;
18738;SDS011;9498;51.862;19.460;2022-08-02T14:33:10;6.70;;;4.40;;
18738;SDS011;9498;51.862;19.460;2022-08-02T14:35:39;5.67;;;3.83;;
18738;SDS011;9498;51.862;19.460;2022-08-02T14:38:06;5.00;;;4.00;;
18738;SDS011;9498;51.862;19.460;2022-08-02T14:40:33;7.57;;;4.20;;
18738;SDS011;9498;51.862;19.460;2022-08-02T14:43:01;7.17;;;4.00;;
18738;SDS011;9498;51.862;19.460;2022-08-02T14:45:29;8.73;;;4.63;;
18738;SDS011;9498;51.862;19.460;2022-08-02T14:47:57;8.13;;;4.45;;
18738;SDS011;9498;51.862;19.460;2022-08-02T14:50:24;7.47;;;4.50;;
18738;SDS011;9498;51.862;19.460;2022-08-02T14:52:53;4.53;;;3.97;;